Time;durP1;ratioP1;P1;durP2;ratioP2;P2;SDS_P1;SDS_P2;PMS_P1;PMS_P2;Temp;Humidity;BMP_temperature;BMP_pressure;BME280_temperature;BME280_humidity;BME280_pressure;Samples;Min_cycle;Max_cycle;Signal;HPM_P1;HPM_P2
2022/07/20 00:00:35;;;;;;;4.97;2.08;;;;;;;24.57;40.92;95530.50;4986444;28;20449;-52
2022/07/20 00:03:09;;;;;;;5.10;2.30;;;;;;;24.51;40.80;95515.38;4985732;28;20026;-50
2022/07/20 00:05:35;;;;;;;6.68;2.20;;;;;;;24.51;40.88;95526.28;4985883;28;20030;-52
2022/07/20 00:08:01;;;;;;;4.38;2.28;;;;;;;24.45;40.73;95512.69;4985950;28;20118;-53
2022/07/20 00:13:11;;;;;;;4.50;1.98;;;;;;;24.42;41.22;95518.38;4986065;28;20115;-53
2022/07/20 00:15:36;;;;;;;3.20;2.38;;;;;;;24.41;40.94;95516.94;4976051;28;20490;-54
2022/07/20 00:18:02;;;;;;;3.72;2.47;;;;;;;24.39;40.97;95513.94;4981907;28;20026;-52
2022/07/20 00:20:27;;;;;;;3.83;2.30;;;;;;;24.35;41.29;95508.03;4986031;28;20038;-52
2022/07/20 00:22:53;;;;;;;6.35;2.60;;;;;;;24.32;41.50;95509.00;4985773;28;20034;-52
2022/07/20 00:25:19;;;;;;;6.85;2.30;;;;;;;24.28;41.25;95503.03;4968844;28;20077;-50
2022/07/20 00:27:44;;;;;;;4.10;2.28;;;;;;;24.21;41.33;95498.09;4985294;28;20037;-54
2022/07/20 00:30:10;;;;;;;5.65;2.88;;;;;;;24.22;41.86;95496.13;4985653;28;20038;-53
2022/07/20 00:32:37;;;;;;;5.03;2.83;;;;;;;24.20;41.72;95504.84;4985360;28;20027;-54
2022/07/20 00:35:07;;;;;;;5.38;2.17;;;;;;;24.14;42.00;95497.88;4985557;28;20406;-53
2022/07/20 00:37:33;;;;;;;7.35;3.42;;;;;;;24.04;41.78;95494.72;4985266;28;20057;-52
2022/07/20 00:39:58;;;;;;;5.15;2.55;;;;;;;24.08;41.84;95508.84;4985773;28;20066;-50
2022/07/20 00:42:24;;;;;;;3.78;2.20;;;;;;;24.08;41.89;95506.13;4967116;28;20033;-49
2022/07/20 00:44:49;;;;;;;5.70;2.40;;;;;;;24.06;41.93;95508.59;4985963;28;20037;-50
2022/07/20 00:47:15;;;;;;;4.18;2.40;;;;;;;24.01;41.91;95501.16;4967368;28;20022;-52
2022/07/20 00:49:40;;;;;;;5.95;2.35;;;;;;;24.03;42.54;95508.84;4985982;28;20045;-52
2022/07/20 00:52:06;;;;;;;4.38;2.45;;;;;;;24.01;42.45;95517.53;4984850;28;20113;-53
2022/07/20 00:54:31;;;;;;;3.95;2.30;;;;;;;23.91;42.15;95499.22;4981449;28;20416;-51
2022/07/20 00:56:57;;;;;;;4.75;2.60;;;;;;;23.91;42.08;95508.13;4978864;28;20522;-53
2022/07/20 00:59:22;;;;;;;6.03;2.60;;;;;;;23.84;42.16;95490.81;4984742;28;20497;-52
2022/07/20 01:01:47;;;;;;;3.60;2.60;;;;;;;23.80;42.15;95495.81;4985820;28;20065;-51
2022/07/20 01:04:13;;;;;;;4.90;2.35;;;;;;;23.88;42.25;95513.84;4987027;28;20019;-52
2022/07/20 01:06:38;;;;;;;5.18;2.80;;;;;;;23.82;41.87;95501.50;4970983;28;20507;-52
2022/07/20 01:09:04;;;;;;;4.53;2.30;;;;;;;23.78;42.32;95498.25;4999483;28;20049;-52
2022/07/20 01:11:29;;;;;;;5.78;2.58;;;;;;;23.80;42.44;95507.44;4998636;28;20048;-54
2022/07/20 01:14:08;;;;;;;7.07;2.60;;;;;;;23.80;42.39;95512.16;4993538;28;20121;-50
2022/07/20 01:16:33;;;;;;;3.92;2.45;;;;;;;23.69;41.74;95495.81;4980076;28;20022;-53
2022/07/20 01:18:59;;;;;;;4.88;2.42;;;;;;;23.73;41.77;95504.47;4990982;28;20026;-51
2022/07/20 01:21:24;;;;;;;3.78;2.20;;;;;;;23.72;42.15;95505.72;4989239;28;20103;-52
2022/07/20 01:23:50;;;;;;;4.40;2.40;;;;;;;23.64;42.31;95499.31;4990451;28;20030;-50
2022/07/20 01:26:17;;;;;;;4.07;2.22;;;;;;;23.68;42.63;95510.69;4969336;28;20113;-53
2022/07/20 01:28:43;;;;;;;3.47;2.53;;;;;;;23.68;42.95;95508.72;4985006;28;20420;-52
2022/07/20 01:31:08;;;;;;;5.00;2.63;;;;;;;23.58;43.11;95495.81;4984928;28;20420;-53
2022/07/20 01:33:34;;;;;;;4.78;2.72;;;;;;;23.63;42.98;95497.78;4984272;28;20022;-48
2022/07/20 01:35:59;;;;;;;5.07;3.05;;;;;;;23.63;42.62;95508.69;4983012;28;20050;-53
2022/07/20 01:38:24;;;;;;;5.03;2.58;;;;;;;23.53;42.72;95485.66;4982677;28;20366;-53
2022/07/20 01:40:50;;;;;;;3.50;2.42;;;;;;;23.60;42.90;95499.53;4984940;28;20042;-49
2022/07/20 01:43:15;;;;;;;6.38;2.10;;;;;;;23.59;43.07;95497.31;4985197;28;20445;-51
2022/07/20 01:45:41;;;;;;;5.55;2.20;;;;;;;23.56;42.37;95493.59;4986174;28;20011;-52
2022/07/20 01:48:06;;;;;;;5.63;2.22;;;;;;;23.54;42.95;95501.53;4983912;28;20081;-51
2022/07/20 01:50:32;;;;;;;3.65;2.10;;;;;;;23.49;42.68;95493.34;4984824;28;20045;-53
2022/07/20 01:52:57;;;;;;;4.13;2.35;;;;;;;23.48;43.30;95502.75;4984073;28;20045;-52
2022/07/20 01:55:23;;;;;;;4.13;2.20;;;;;;;23.45;43.13;95501.78;4983705;28;20022;-51
2022/07/20 01:57:48;;;;;;;3.03;2.10;;;;;;;23.45;43.22;95495.56;4983839;28;20034;-53
2022/07/20 02:00:14;;;;;;;5.90;2.17;;;;;;;23.41;43.75;95503.28;4984768;28;20417;-51
2022/07/20 02:02:40;;;;;;;5.25;2.35;;;;;;;23.40;43.43;95507.22;4983584;28;20549;-52
2022/07/20 02:05:08;;;;;;;3.50;2.00;;;;;;;23.29;43.75;95501.81;4984658;28;20108;-50
2022/07/20 02:07:34;;;;;;;5.07;2.25;;;;;;;23.33;43.77;95507.72;4983599;28;20501;-53
2022/07/20 02:09:59;;;;;;;3.70;2.20;;;;;;;23.33;43.64;95513.19;4984156;28;20030;-52
2022/07/20 02:12:25;;;;;;;3.30;2.20;;;;;;;23.26;43.77;95502.78;4983243;28;20030;-51
2022/07/20 02:14:50;;;;;;;3.88;2.22;;;;;;;23.30;43.53;95519.63;4980008;28;20029;-51
2022/07/20 02:17:16;;;;;;;3.80;1.90;;;;;;;23.28;43.91;95527.56;4974183;28;20410;-51
2022/07/20 02:19:41;;;;;;;2.78;1.98;;;;;;;23.26;43.98;95513.69;4983171;28;20034;-49
2022/07/20 02:22:07;;;;;;;2.70;1.85;;;;;;;23.17;43.59;95516.66;4983189;28;20100;-53
2022/07/20 02:24:32;;;;;;;4.15;2.17;;;;;;;23.19;44.44;95530.53;4984087;28;20065;-51
2022/07/20 02:26:57;;;;;;;5.53;2.00;;;;;;;23.16;43.81;95536.97;4984120;28;20034;-50
2022/07/20 02:29:23;;;;;;;3.63;1.90;;;;;;;23.18;43.97;95528.31;4984522;28;20045;-53
2022/07/20 02:31:48;;;;;;;3.75;1.80;;;;;;;23.15;44.11;95524.59;4975987;28;20026;-50
2022/07/20 02:34:14;;;;;;;4.25;1.80;;;;;;;23.12;43.59;95522.88;4983575;28;20030;-50
2022/07/20 02:36:39;;;;;;;4.00;1.80;;;;;;;23.12;43.39;95528.31;4965762;28;20076;-51
2022/07/20 02:39:05;;;;;;;3.15;1.80;;;;;;;23.10;43.60;95517.16;4983484;28;20026;-51
2022/07/20 02:41:32;;;;;;;2.03;1.60;;;;;;;23.05;44.24;95509.72;4983272;28;20038;-53
2022/07/20 02:43:58;;;;;;;6.10;2.10;;;;;;;23.10;44.02;95527.31;4982992;28;20458;-53
2022/07/20 02:46:23;;;;;;;4.00;1.98;;;;;;;23.02;44.03;95521.63;4983415;28;20060;-51
2022/07/20 02:48:49;;;;;;;2.50;1.70;;;;;;;23.04;43.92;95535.47;4983383;28;20420;-50
2022/07/20 02:51:14;;;;;;;5.45;2.30;;;;;;;23.04;43.86;95540.91;4982765;28;20330;-50
2022/07/20 02:53:40;;;;;;;5.03;1.95;;;;;;;22.95;43.82;95527.53;4983118;28;20500;-52
2022/07/20 02:56:05;;;;;;;4.70;1.95;;;;;;;22.89;44.11;95529.47;4979973;28;20042;-50
2022/07/20 02:58:31;;;;;;;3.30;1.90;;;;;;;22.94;44.01;95531.53;4982905;28;20036;-49
2022/07/20 03:00:57;;;;;;;3.55;1.80;;;;;;;22.82;43.70;95523.03;4982698;28;20088;-51
2022/07/20 03:03:23;;;;;;;3.40;2.40;;;;;;;22.93;43.85;95540.91;4982697;28;20488;-51
2022/07/20 03:05:48;;;;;;;3.55;2.25;;;;;;;22.88;43.61;95537.41;4981627;28;20022;-50
2022/07/20 03:08:14;;;;;;;3.97;1.92;;;;;;;22.90;43.71;95547.31;4965212;28;20442;-51
2022/07/20 03:10:39;;;;;;;4.50;2.40;;;;;;;22.88;43.32;95541.63;4965147;28;20564;-52
2022/07/20 03:13:05;;;;;;;3.92;2.22;;;;;;;22.88;43.07;95549.03;4981946;28;20387;-51
2022/07/20 03:15:30;;;;;;;3.78;2.05;;;;;;;22.88;43.24;95542.84;4973787;28;20035;-50
2022/07/20 03:17:56;;;;;;;4.57;2.67;;;;;;;22.87;43.24;95552.25;4978376;28;20037;-51
2022/07/20 03:20:26;;;;;;;5.32;2.30;;;;;;;22.85;42.74;95547.31;4982617;28;20727;-48
2022/07/20 03:22:51;;;;;;;;;;;;;;;22.84;42.93;95542.34;4982751;28;20081;-50
2022/07/20 03:25:17;;;;;;;4.40;2.20;;;;;;;22.79;42.69;95556.69;4982656;28;19985;-52
2022/07/20 03:27:42;;;;;;;4.40;2.28;;;;;;;22.69;42.85;95539.09;4962892;28;20049;-52
2022/07/20 03:30:08;;;;;;;5.15;2.40;;;;;;;22.78;42.96;95557.94;4982726;28;20034;-53
2022/07/20 03:32:34;;;;;;;6.30;2.50;;;;;;;22.81;42.97;95562.38;4974101;28;20061;-50
2022/07/20 03:34:59;;;;;;;3.78;2.20;;;;;;;22.73;42.87;95559.41;4974753;28;20026;-49
2022/07/20 03:37:25;;;;;;;3.92;1.88;;;;;;;22.75;43.01;95556.94;4982228;28;20351;-52
2022/07/20 03:39:50;;;;;;;4.55;2.28;;;;;;;22.73;43.33;95558.66;4982744;28;20027;-51
2022/07/20 03:42:16;;;;;;;5.65;2.40;;;;;;;22.71;43.31;95561.16;4982135;28;20054;-51
2022/07/20 03:44:41;;;;;;;6.18;2.50;;;;;;;22.74;43.24;95560.91;4982388;28;20137;-50
2022/07/20 03:47:06;;;;;;;7.75;2.38;;;;;;;22.70;43.09;95554.94;4981915;28;20026;-51
2022/07/20 03:49:32;;;;;;;4.90;2.15;;;;;;;22.68;43.12;95562.13;4982914;28;20034;-53
2022/07/20 03:51:57;;;;;;;3.97;2.10;;;;;;;22.73;43.38;95575.00;4981444;28;20046;-52
2022/07/20 03:54:23;;;;;;;5.03;2.47;;;;;;;22.66;43.03;95564.59;4982740;28;20068;-52
2022/07/20 03:56:48;;;;;;;4.50;2.72;;;;;;;22.70;43.57;95565.84;4981707;28;20096;-52
2022/07/20 03:59:14;;;;;;;3.97;1.98;;;;;;;22.68;43.33;95567.56;4982222;28;20113;-51
2022/07/20 04:01:40;;;;;;;4.78;2.45;;;;;;;22.73;43.85;95580.44;4980950;28;20038;-52
2022/07/20 04:04:05;;;;;;;5.28;2.60;;;;;;;22.70;43.41;95571.28;4981351;28;20464;-51
2022/07/20 04:06:31;;;;;;;4.90;2.20;;;;;;;22.68;43.63;95567.56;4981516;28;20587;-50
2022/07/20 04:08:56;;;;;;;4.82;2.40;;;;;;;22.73;43.47;95570.28;4973385;28;20033;-50
2022/07/20 04:11:22;;;;;;;6.03;2.40;;;;;;;22.73;43.65;95580.44;4960921;28;20450;-53
2022/07/20 04:13:47;;;;;;;3.80;2.30;;;;;;;22.73;43.06;95569.56;4964943;28;20050;-51
2022/07/20 04:16:13;;;;;;;4.75;1.85;;;;;;;22.70;42.91;95565.09;4970063;28;20034;-52
2022/07/20 04:18:38;;;;;;;4.05;2.00;;;;;;;22.78;42.81;95571.53;4963785;28;20038;-51
2022/07/20 04:21:04;;;;;;;4.00;2.40;;;;;;;22.77;43.20;95570.06;4963196;28;20058;-50
2022/07/20 04:23:29;;;;;;;3.95;2.30;;;;;;;22.79;43.34;95573.03;4964761;28;20613;-51
2022/07/20 04:25:55;;;;;;;4.95;2.35;;;;;;;22.78;43.40;95577.00;4961554;28;20503;-52
2022/07/20 04:28:20;;;;;;;3.88;2.10;;;;;;;22.69;43.42;95558.16;4963931;28;20492;-52
2022/07/20 04:30:46;;;;;;;6.13;2.13;;;;;;;22.77;42.72;95575.53;4964133;28;20712;-52
2022/07/20 04:33:11;;;;;;;4.65;2.00;;;;;;;22.76;43.08;95563.13;4961570;28;20023;-51
2022/07/20 04:35:37;;;;;;;4.78;2.50;;;;;;;22.79;43.28;95578.50;4962613;28;20042;-50
2022/07/20 04:38:02;;;;;;;4.65;2.70;;;;;;;22.83;42.98;95573.56;4960252;28;20691;-53
2022/07/20 04:40:28;;;;;;;5.38;2.30;;;;;;;22.85;42.08;95579.25;4962892;28;20023;-51
2022/07/20 04:42:53;;;;;;;3.85;2.40;;;;;;;22.87;42.58;95579.50;4965885;28;20027;-51
2022/07/20 04:45:19;;;;;;;5.50;2.20;;;;;;;22.90;42.12;95584.72;4965614;28;20026;-53
2022/07/20 04:47:45;;;;;;;4.65;2.28;;;;;;;22.92;42.35;95582.97;4963898;28;20031;-51
2022/07/20 04:50:10;;;;;;;4.82;2.30;;;;;;;22.97;42.48;95590.47;4976244;28;20037;-51
2022/07/20 04:52:36;;;;;;;5.05;2.25;;;;;;;23.05;42.54;95596.16;4984848;28;20028;-53
2022/07/20 04:55:01;;;;;;;5.05;2.28;;;;;;;23.14;42.28;95593.94;4971280;28;20035;-50
2022/07/20 04:57:27;;;;;;;5.32;2.63;;;;;;;23.20;42.25;95597.41;4962877;28;20046;-51
2022/07/20 04:59:52;;;;;;;4.40;2.50;;;;;;;23.32;41.50;95593.47;4968295;28;20043;-51
2022/07/20 05:02:18;;;;;;;5.00;2.40;;;;;;;23.31;41.75;95581.06;4965567;28;20019;-51
2022/07/20 05:04:46;;;;;;;3.78;2.30;;;;;;;23.57;41.40;95600.66;4966894;28;20069;-52
2022/07/20 05:07:12;;;;;;;4.30;2.22;;;;;;;23.71;41.07;95599.69;4964121;28;20039;-51
2022/07/20 05:09:38;;;;;;;2.75;2.22;;;;;;;23.81;40.72;95573.63;4968060;28;20054;-54
2022/07/20 05:12:04;;;;;;;4.43;2.47;;;;;;;24.03;40.46;95594.16;4969536;28;20490;-51
2022/07/20 05:14:29;;;;;;;5.63;2.97;;;;;;;24.21;39.84;95590.91;4964664;28;20027;-52
2022/07/20 05:16:55;;;;;;;5.85;2.22;;;;;;;24.40;39.76;95597.34;4964503;28;20034;-51
2022/07/20 05:19:20;;;;;;;3.55;2.08;;;;;;;24.56;40.04;95599.28;4966060;28;20521;-51
2022/07/20 05:21:46;;;;;;;4.20;2.28;;;;;;;24.77;39.25;95600.38;4963926;28;20057;-52
2022/07/20 05:24:11;;;;;;;3.63;2.00;;;;;;;24.98;39.42;95605.75;4963542;28;20425;-53
2022/07/20 05:26:36;;;;;;;10.02;2.58;;;;;;;25.14;38.99;95594.03;4966938;28;20038;-52
2022/07/20 05:29:02;;;;;;;6.35;2.47;;;;;;;25.32;38.72;95598.88;4966828;28;20031;-53
2022/07/20 05:31:28;;;;;;;5.45;2.13;;;;;;;25.51;39.52;95605.19;4947032;28;20433;-53
2022/07/20 05:33:53;;;;;;;6.95;2.10;;;;;;;25.72;39.42;95598.06;4966943;28;20027;-50
2022/07/20 05:36:18;;;;;;;4.63;2.10;;;;;;;25.83;41.17;95599.47;4962906;28;20489;-50
2022/07/20 05:38:44;;;;;;;4.32;2.10;;;;;;;26.02;39.86;95594.81;4969074;28;20624;-52
2022/07/20 05:41:09;;;;;;;4.22;2.50;;;;;;;26.17;39.33;95597.88;4968562;28;20030;-51
2022/07/20 05:43:35;;;;;;;2.63;1.90;;;;;;;26.28;39.65;95600.53;4964978;28;20019;-52
2022/07/20 05:46:01;;;;;;;4.85;2.28;;;;;;;26.37;38.13;95597.47;4964717;28;20027;-53
2022/07/20 05:48:26;;;;;;;6.22;2.65;;;;;;;26.50;37.88;95594.81;4963091;28;20031;-52
2022/07/20 05:50:52;;;;;;;5.47;2.30;;;;;;;26.57;37.43;95588.75;4932743;28;20034;-51
2022/07/20 05:53:17;;;;;;;6.97;3.05;;;;;;;26.69;37.36;95596.31;4967125;28;20115;-53
2022/07/20 05:55:43;;;;;;;5.07;2.20;;;;;;;26.76;37.62;95591.00;4964173;28;20034;-53
2022/07/20 05:58:10;;;;;;;4.38;2.10;;;;;;;26.95;36.80;95602.75;4966305;28;20035;-52
2022/07/20 06:00:35;;;;;;;6.30;2.15;;;;;;;27.07;36.83;95603.31;4984297;28;20089;-52
2022/07/20 06:03:01;;;;;;;4.03;2.42;;;;;;;27.14;36.31;95595.22;4954605;28;20059;-51
2022/07/20 06:05:27;;;;;;;5.47;2.40;;;;;;;27.21;35.86;95591.91;4964079;28;20059;-53
2022/07/20 06:07:55;;;;;;;6.40;2.95;;;;;;;27.32;36.14;95588.97;4961787;28;20077;-51
2022/07/20 06:10:21;;;;;;;6.15;2.60;;;;;;;27.47;35.53;95608.47;4965497;28;20140;-54
2022/07/20 06:12:46;;;;;;;6.25;2.25;;;;;;;27.44;35.47;95587.56;4973470;28;20022;-55
2022/07/20 06:15:12;;;;;;;4.78;2.42;;;;;;;27.64;35.24;95595.25;4971174;28;20126;-54
2022/07/20 06:17:38;;;;;;;6.40;2.33;;;;;;;27.74;35.61;95606.06;4964291;28;20439;-52
2022/07/20 06:20:12;;;;;;;6.75;2.60;;;;;;;27.81;35.32;95594.44;4958839;28;20108;-55
2022/07/20 06:22:38;;;;;;;5.15;2.25;;;;;;;27.82;35.34;95601.44;4974395;28;20034;-50
2022/07/20 06:25:04;;;;;;;4.25;2.20;;;;;;;27.83;35.32;95607.66;4971171;28;20093;-50
2022/07/20 06:27:30;;;;;;;5.40;2.50;;;;;;;27.84;35.41;95598.88;4978881;28;20022;-52
2022/07/20 06:29:55;;;;;;;7.40;2.85;;;;;;;27.71;35.35;95606.34;4982576;28;20054;-52
2022/07/20 06:32:20;;;;;;;11.15;3.10;;;;;;;27.71;35.40;95605.63;4982242;28;20030;-54
2022/07/20 06:34:46;;;;;;;6.50;2.72;;;;;;;27.64;35.20;95590.50;4963116;28;20014;-54
2022/07/20 06:37:11;;;;;;;7.80;2.63;;;;;;;27.53;35.45;95601.66;4965488;28;20417;-52
2022/07/20 06:39:37;;;;;;;6.18;2.60;;;;;;;27.44;35.44;95593.03;4982352;28;20394;-52
2022/07/20 06:42:02;;;;;;;6.22;3.00;;;;;;;27.40;35.56;95593.34;4980324;28;20019;-50
2022/07/20 06:44:28;;;;;;;6.03;2.70;;;;;;;27.26;36.05;95593.81;4983442;28;20118;-52
2022/07/20 06:46:53;;;;;;;7.35;3.03;;;;;;;27.11;35.88;95587.31;4972225;28;20023;-51
2022/07/20 06:49:19;;;;;;;12.00;3.30;;;;;;;27.08;36.05;95580.13;4970895;28;20482;-51
2022/07/20 06:51:45;;;;;;;4.97;3.33;;;;;;;27.12;36.04;95589.53;4968925;28;20031;-52
2022/07/20 06:54:10;;;;;;;6.00;2.88;;;;;;;26.89;36.41;95571.91;4965981;28;20067;-52
2022/07/20 06:56:36;;;;;;;5.47;2.70;;;;;;;26.85;36.64;95581.66;4950653;28;20030;-55
2022/07/20 06:59:01;;;;;;;5.45;2.75;;;;;;;26.81;37.00;95587.44;4964778;28;20022;-50
2022/07/20 07:01:27;;;;;;;5.68;2.65;;;;;;;26.79;36.87;95589.94;4963711;28;20033;-51
2022/07/20 07:03:52;;;;;;;8.30;2.65;;;;;;;26.79;37.17;95578.25;4977429;28;20041;-52
2022/07/20 07:06:18;;;;;;;6.38;2.83;;;;;;;26.67;37.15;95567.97;4982374;28;20053;-51
2022/07/20 07:08:43;;;;;;;6.65;2.95;;;;;;;26.64;37.36;95571.75;4981912;28;20621;-53
2022/07/20 07:11:09;;;;;;;6.40;2.85;;;;;;;26.61;37.27;95570.03;4980176;28;20413;-53
2022/07/20 07:13:34;;;;;;;4.85;2.47;;;;;;;26.60;37.44;95574.03;4982974;28;20125;-54
2022/07/20 07:16:00;;;;;;;6.38;2.20;;;;;;;26.53;37.54;95566.38;4969459;28;20041;-52
2022/07/20 07:18:25;;;;;;;4.43;2.28;;;;;;;26.54;37.48;95578.81;4982565;28;20034;-52
2022/07/20 07:20:51;;;;;;;7.22;2.80;;;;;;;26.48;37.71;95569.94;4982594;28;20077;-50
2022/07/20 07:23:16;;;;;;;5.45;2.45;;;;;;;26.54;37.47;95573.34;4982755;28;20034;-53
2022/07/20 07:25:42;;;;;;;4.75;2.55;;;;;;;26.55;37.55;95569.34;4983073;28;20037;-51
2022/07/20 07:28:07;;;;;;;6.05;2.63;;;;;;;26.39;37.68;95556.59;4960318;28;20503;-53
2022/07/20 07:30:33;;;;;;;5.55;2.70;;;;;;;26.45;37.87;95570.97;4983079;28;20030;-53
2022/07/20 07:32:58;;;;;;;5.28;3.03;;;;;;;26.46;37.83;95572.47;4982263;28;20481;-53
2022/07/20 07:35:24;;;;;;;6.97;3.33;;;;;;;26.42;37.97;95572.00;4978616;28;20035;-53
2022/07/20 07:37:49;;;;;;;4.93;3.28;;;;;;;26.28;37.85;95554.00;4966449;28;20097;-53
2022/07/20 07:40:15;;;;;;;7.25;2.97;;;;;;;26.36;37.87;95565.84;4982219;28;20447;-50
2022/07/20 07:42:40;;;;;;;8.48;2.97;;;;;;;26.43;37.32;95573.50;4982768;28;20030;-52
2022/07/20 07:45:07;;;;;;;5.25;3.17;;;;;;;26.43;37.40;95565.28;4975798;28;20031;-52
2022/07/20 07:47:33;;;;;;;7.30;2.55;;;;;;;26.42;37.59;95561.03;4963676;28;20061;-50
2022/07/20 07:49:59;;;;;;;7.75;2.38;;;;;;;26.48;37.27;95561.72;4965218;28;20089;-53
2022/07/20 07:52:24;;;;;;;6.25;2.53;;;;;;;26.49;36.94;95560.47;4979548;28;20035;-50
2022/07/20 07:54:50;;;;;;;7.55;2.53;;;;;;;26.42;36.69;95545.34;4964136;28;20038;-51
2022/07/20 07:57:15;;;;;;;5.05;2.60;;;;;;;26.45;36.56;95560.00;4970696;28;20065;-50
2022/07/20 07:59:42;;;;;;;8.35;2.53;;;;;;;26.47;37.09;95560.22;4983047;28;20781;-52
2022/07/20 08:02:07;;;;;;;5.85;2.50;;;;;;;26.43;36.98;95551.56;4982055;28;20084;-52
2022/07/20 08:04:33;;;;;;;6.55;2.30;;;;;;;26.44;37.02;95558.50;4977530;28;20026;-52
2022/07/20 08:06:58;;;;;;;5.97;2.30;;;;;;;26.44;36.68;95542.84;4983978;28;20056;-53
2022/07/20 08:09:24;;;;;;;7.63;2.50;;;;;;;26.41;36.85;95543.13;4984620;28;20493;-51
2022/07/20 08:11:49;;;;;;;5.43;2.20;;;;;;;26.49;36.79;95549.50;4977168;28;20031;-52
2022/07/20 08:14:15;;;;;;;4.13;2.20;;;;;;;26.49;36.30;95546.78;4970472;28;20045;-51
2022/07/20 08:16:40;;;;;;;5.93;2.97;;;;;;;26.42;37.30;95539.13;4967707;28;20031;-53
2022/07/20 08:19:06;;;;;;;5.07;2.25;;;;;;;26.40;36.80;95531.44;4966119;28;20070;-56
2022/07/20 08:21:31;;;;;;;5.18;2.30;;;;;;;26.50;37.35;95550.97;4985147;28;20045;-53
2022/07/20 08:23:57;;;;;;;6.53;2.03;;;;;;;26.46;37.39;95539.59;4986433;28;20040;-53
2022/07/20 08:26:22;;;;;;;6.20;2.28;;;;;;;26.48;36.59;95531.59;4984784;28;20058;-52
2022/07/20 08:28:48;;;;;;;4.55;2.03;;;;;;;26.57;36.43;95536.69;4983461;28;20049;-55
2022/07/20 08:31:13;;;;;;;3.15;2.05;;;;;;;26.58;35.45;95536.19;4981111;28;20030;-50
2022/07/20 08:33:38;;;;;;;4.28;1.85;;;;;;;26.57;35.56;95539.44;4985548;28;20101;-50
2022/07/20 08:36:04;;;;;;;6.38;1.98;;;;;;;26.53;35.80;95528.03;4984559;28;20034;-52
2022/07/20 08:38:30;;;;;;;8.98;2.10;;;;;;;26.61;35.72;95539.91;4984984;28;20030;-53
2022/07/20 08:40:56;;;;;;;5.03;2.30;;;;;;;26.56;36.52;95527.00;4985433;28;20367;-55
2022/07/20 08:43:23;;;;;;;3.92;1.80;;;;;;;26.59;36.81;95532.19;4967097;28;20326;-53
2022/07/20 08:45:49;;;;;;;3.35;2.03;;;;;;;26.55;36.58;95531.00;4985509;28;20180;-51
2022/07/20 08:48:18;;;;;;;4.63;1.80;;;;;;;26.64;35.52;95539.59;4961238;28;20030;-51
2022/07/20 08:50:43;;;;;;;2.97;1.67;;;;;;;26.62;35.40;95530.41;4982727;28;20073;-51
2022/07/20 08:53:09;;;;;;;5.30;1.90;;;;;;;26.67;35.10;95537.81;4984298;28;20054;-56
2022/07/20 08:55:34;;;;;;;4.88;1.95;;;;;;;26.63;35.40;95526.41;4975849;28;20482;-52
2022/07/20 08:58:00;;;;;;;3.55;1.70;;;;;;;26.67;35.60;95527.59;4978864;28;20026;-52
2022/07/20 09:00:25;;;;;;;4.82;1.80;;;;;;;26.67;35.28;95526.88;4966196;28;20025;-53
2022/07/20 09:02:53;;;;;;;3.25;1.80;;;;;;;26.67;35.10;95516.63;4966672;28;20030;-53
2022/07/20 09:05:20;;;;;;;3.30;1.67;;;;;;;26.72;35.55;95528.78;4966103;28;20061;-58
2022/07/20 09:07:49;;;;;;;3.83;1.60;;;;;;;26.71;34.38;95516.31;4971014;28;20120;-55
2022/07/20 09:10:22;;;;;;;3.63;1.90;;;;;;;26.67;34.84;95519.38;4968196;28;20365;-53
2022/07/20 09:12:58;;;;;;;4.40;1.48;;;;;;;26.75;35.04;95522.25;4977339;28;20054;-54
2022/07/20 09:15:32;;;;;;;2.63;1.60;;;;;;;26.76;34.24;95512.78;4966477;28;20035;-52
2022/07/20 09:18:06;;;;;;;2.70;1.33;;;;;;;26.68;34.66;95506.41;4978123;28;20675;-53
2022/07/20 09:20:33;;;;;;;4.93;1.60;;;;;;;26.77;34.26;95526.72;4984983;28;20050;-52
2022/07/20 09:23:09;;;;;;;4.18;1.83;;;;;;;26.76;33.89;95513.53;4984394;28;20035;-57
2022/07/20 09:25:34;;;;;;;3.17;1.60;;;;;;;26.78;34.34;95517.19;4983138;28;20054;-55
2022/07/20 09:28:00;;;;;;;2.65;1.50;;;;;;;26.77;34.07;95515.75;4982890;28;20056;-57
2022/07/20 09:30:26;;;;;;;3.33;1.92;;;;;;;26.79;34.01;95518.69;4978492;28;20395;-55
2022/07/20 09:32:52;;;;;;;3.55;1.63;;;;;;;26.72;34.58;95501.38;4984256;28;20145;-57
2022/07/20 09:35:19;;;;;;;2.55;1.40;;;;;;;26.81;34.53;95509.94;4985318;28;20421;-54
2022/07/20 09:37:44;;;;;;;2.70;1.50;;;;;;;26.76;34.54;95497.81;4966578;28;20023;-53
2022/07/20 09:40:10;;;;;;;3.05;1.50;;;;;;;26.82;34.16;95495.72;4983708;28;20049;-51
2022/07/20 09:42:39;;;;;;;3.20;1.35;;;;;;;26.85;34.85;95504.91;4982788;28;20453;-54
2022/07/20 09:45:22;;;;;;;3.27;1.50;;;;;;;26.84;35.04;95487.72;4983874;28;20053;-52
2022/07/20 09:48:03;;;;;;;3.08;1.83;;;;;;;26.85;34.65;95483.72;4965529;28;20030;-52
2022/07/20 09:50:30;;;;;;;3.15;1.42;;;;;;;26.90;34.91;95493.88;4983580;28;20033;-52
2022/07/20 09:52:57;;;;;;;4.55;1.60;;;;;;;26.91;34.78;95503.59;4983696;28;20035;-52
2022/07/20 09:55:22;;;;;;;4.13;1.30;;;;;;;26.84;34.66;95487.72;4983240;28;20552;-50
2022/07/20 09:57:49;;;;;;;2.55;1.50;;;;;;;26.95;34.50;95493.09;4983951;28;20038;-52
2022/07/20 10:00:15;;;;;;;2.40;1.45;;;;;;;26.94;34.29;95491.59;4965875;28;20262;-52
2022/07/20 10:02:40;;;;;;;4.30;1.90;;;;;;;26.95;34.37;95487.59;4975710;28;20245;-53
2022/07/20 10:05:06;;;;;;;2.92;1.30;;;;;;;26.91;34.52;95475.47;4962858;28;20031;-50
2022/07/20 10:07:32;;;;;;;5.18;1.60;;;;;;;26.90;34.37;95471.97;4966605;28;20030;-52
2022/07/20 10:09:58;;;;;;;4.63;1.38;;;;;;;26.99;34.31;95471.56;4984124;28;20038;-52
2022/07/20 10:12:23;;;;;;;2.42;1.58;;;;;;;27.00;33.94;95478.53;4950570;28;20050;-51
2022/07/20 10:14:49;;;;;;;4.10;1.48;;;;;;;26.91;34.35;95459.75;4980773;28;20029;-53
2022/07/20 10:17:15;;;;;;;4.07;1.33;;;;;;;26.98;34.13;95464.63;4973029;28;20027;-52
2022/07/20 10:19:48;;;;;;;2.50;1.30;;;;;;;26.99;34.61;95466.09;4950708;28;20026;-55
2022/07/20 10:22:13;;;;;;;4.05;1.30;;;;;;;27.03;34.09;95471.28;4983610;28;20099;-51
2022/07/20 10:24:42;;;;;;;2.92;1.25;;;;;;;27.04;33.99;95473.50;4983953;28;20026;-52
2022/07/20 10:27:08;;;;;;;3.08;1.20;;;;;;;27.06;34.15;95465.50;4983584;28;20117;-52
2022/07/20 10:29:37;;;;;;;3.90;1.90;;;;;;;27.05;34.25;95453.03;4984148;28;20120;-53
2022/07/20 10:32:09;;;;;;;3.13;1.30;;;;;;;27.10;33.82;95463.19;4970194;28;20561;-55
2022/07/20 10:34:35;;;;;;;2.42;1.30;;;;;;;27.09;34.06;95450.75;4984600;28;20544;-52
2022/07/20 10:37:25;;;;;;;2.70;1.60;;;;;;;27.09;34.27;95453.47;4983305;28;20039;-55
2022/07/20 10:39:52;;;;;;;1.58;1.10;;;;;;;27.05;32.62;95442.06;4975643;28;20033;-54
2022/07/20 10:42:25;;;;;;;2.38;1.20;;;;;;;26.99;33.24;95427.72;4980506;28;20038;-55
2022/07/20 10:44:51;;;;;;;3.28;1.20;;;;;;;27.01;33.89;95425.19;4983604;28;20033;-52
2022/07/20 10:47:39;;;;;;;2.33;1.45;;;;;;;27.10;33.61;95433.03;4981313;28;20083;-51
2022/07/20 10:50:05;;;;;;;2.85;1.15;;;;;;;27.08;34.01;95424.56;4977800;28;20511;-51
2022/07/20 10:52:32;;;;;;;4.63;1.42;;;;;;;27.09;34.54;95420.56;4962616;28;20023;-52
2022/07/20 10:54:57;;;;;;;2.72;1.23;;;;;;;27.15;34.55;95423.97;4961859;28;20270;-55
2022/07/20 10:57:24;;;;;;;2.30;1.40;;;;;;;27.18;34.28;95417.44;4961968;28;20114;-53
2022/07/20 11:00:06;;;;;;;2.10;1.35;;;;;;;27.19;35.09;95418.91;4964292;28;20399;-52
2022/07/20 11:02:33;;;;;;;2.88;1.35;;;;;;;27.11;34.91;95412.56;4969023;28;20067;-53
2022/07/20 11:04:58;;;;;;;3.38;1.33;;;;;;;26.90;35.57;95414.41;4966371;28;20031;-58
2022/07/20 11:07:31;;;;;;;4.03;1.25;;;;;;;26.77;35.50;95416.34;4972365;28;20033;-54
2022/07/20 11:09:58;;;;;;;3.85;1.45;;;;;;;26.67;35.73;95407.03;4963795;28;20050;-57
2022/07/20 11:12:30;;;;;;;3.58;1.40;;;;;;;26.61;35.85;95405.66;4974009;28;20579;-53
2022/07/20 11:14:56;;;;;;;2.00;1.27;;;;;;;26.53;36.20;95407.50;4980896;28;20046;-50
2022/07/20 11:17:22;;;;;;;2.70;1.23;;;;;;;26.45;36.12;95403.88;4947761;28;20029;-51
2022/07/20 11:19:48;;;;;;;2.35;1.17;;;;;;;26.36;36.36;95398.78;4982852;28;20776;-51
2022/07/20 11:22:13;;;;;;;1.70;0.90;;;;;;;26.31;36.76;95405.81;4964070;28;20046;-51
2022/07/20 11:24:38;;;;;;;3.42;1.30;;;;;;;26.11;36.52;95383.66;4959517;28;20034;-50
2022/07/20 11:27:14;;;;;;;2.30;1.20;;;;;;;26.23;37.05;95406.88;4980895;28;20030;-53
2022/07/20 11:29:47;;;;;;;3.00;1.23;;;;;;;26.16;36.99;95380.13;4982021;28;20041;-51
2022/07/20 11:32:12;;;;;;;2.00;1.13;;;;;;;26.05;37.10;95379.53;4950814;28;20034;-52